Time;durP1;ratioP1;P1;durP2;ratioP2;P2;SDS_P1;SDS_P2;PMS_P1;PMS_P2;Temp;Humidity;BMP_temperature;BMP_pressure;BME280_temperature;BME280_humidity;BME280_pressure;Samples;Min_cycle;Max_cycle;Signal;HPM_P1;HPM_P2
2023/01/18 00:01:33;;;;;;;26.02;18.63;;;;;;;-4.48;100.00;99144.28;5148012;27;20202;-84
2023/01/18 00:03:58;;;;;;;29.52;18.90;;;;;;;-4.48;100.00;99146.78;5150996;27;20027;-88
2023/01/18 00:06:26;;;;;;;29.85;18.95;;;;;;;-4.49;100.00;99142.63;5149541;27;20038;-85
2023/01/18 00:08:55;;;;;;;30.38;18.60;;;;;;;-4.51;100.00;99149.41;5152053;27;20419;-89
2023/01/18 00:11:21;;;;;;;27.60;18.42;;;;;;;-4.69;100.00;99118.00;5155636;27;20019;-88
2023/01/18 00:13:49;;;;;;;30.63;19.63;;;;;;;-4.85;100.00;99093.28;5154211;27;20020;-88
2023/01/18 00:16:17;;;;;;;29.35;18.27;;;;;;;-4.52;100.00;99146.91;5155531;27;20023;-89
2023/01/18 00:18:43;;;;;;;27.55;17.88;;;;;;;-4.52;100.00;99149.41;5154297;27;20051;-89
2023/01/18 00:21:10;;;;;;;25.48;18.90;;;;;;;-4.96;100.00;99084.34;5155359;27;20019;-89
2023/01/18 00:23:37;;;;;;;25.75;18.23;;;;;;;-4.74;100.00;99119.81;5156343;27;20023;-89
2023/01/18 00:26:24;;;;;;;25.98;19.23;;;;;;;-4.50;100.00;99147.72;5156735;27;20057;-89
2023/01/18 00:28:50;;;;;;;27.55;18.08;;;;;;;-4.50;100.00;99150.22;5155835;27;20034;-88
2023/01/18 00:31:18;;;;;;;27.70;17.85;;;;;;;-4.52;100.00;99156.97;5155791;27;20023;-88
2023/01/18 00:33:45;;;;;;;27.98;17.85;;;;;;;-4.64;100.00;99138.00;5156212;27;20015;-89
2023/01/18 00:36:11;;;;;;;27.02;17.88;;;;;;;-4.55;100.00;99157.91;5156511;27;20019;-89
2023/01/18 00:38:36;;;;;;;26.02;17.40;;;;;;;-4.60;100.00;99153.88;5156074;27;20034;-87
2023/01/18 00:41:11;;;;;;;27.17;17.02;;;;;;;-4.89;100.00;99115.22;5156431;27;20011;-88
2023/01/18 00:43:39;;;;;;;27.05;16.90;;;;;;;-4.78;100.00;99127.50;5155800;27;20063;-88
2023/01/18 00:46:10;;;;;;;27.02;18.30;;;;;;;-4.83;100.00;99124.28;5157755;27;20031;-89
2023/01/18 00:48:37;;;;;;;26.80;18.27;;;;;;;-5.04;100.00;99077.88;5157271;27;20034;-88
2023/01/18 00:51:03;;;;;;;25.08;17.50;;;;;;;-4.57;100.00;99161.34;5156443;27;20034;-87
2023/01/18 00:53:29;;;;;;;31.75;20.10;;;;;;;-4.69;100.00;99147.41;5154198;27;20019;-86
2023/01/18 00:56:12;;;;;;;26.45;17.15;;;;;;;-4.63;100.00;99160.63;5151939;27;20028;-89
2023/01/18 00:58:37;;;;;;;28.70;18.85;;;;;;;-4.66;100.00;99163.25;5134699;27;20470;-88
2023/01/18 01:01:05;;;;;;;25.48;17.10;;;;;;;-4.68;100.00;99159.94;5155407;27;20023;-90
2023/01/18 01:06:43;;;;;;;26.75;17.65;;;;;;;-4.68;100.00;99161.66;5156196;27;20051;-89
2023/01/18 01:06:44;;;;;;;28.52;18.17;;;;;;;-5.04;100.00;99113.13;5156296;27;20091;-90
2023/01/18 01:09:18;;;;;;;27.85;17.65;;;;;;;-4.74;100.00;99172.69;5155948;27;20027;-87
2023/01/18 01:26:11;;;;;;;24.40;16.38;;;;;;;-5.82;100.00;99012.88;5155017;28;20064;-87
2023/01/18 01:28:44;;;;;;;29.98;16.65;;;;;;;-5.86;100.00;99010.50;5137766;28;20035;-89
2023/01/18 01:31:13;;;;;;;25.35;17.70;;;;;;;-4.94;100.00;99157.31;5136702;28;20027;-89
2023/01/18 01:33:39;;;;;;;25.55;16.90;;;;;;;-5.44;100.00;99081.47;5137509;28;20103;-89
2023/01/18 01:36:07;;;;;;;26.85;17.60;;;;;;;-5.08;100.00;99142.59;5118936;28;20053;-88
2023/01/18 01:38:34;;;;;;;28.02;17.65;;;;;;;-5.10;100.00;99149.34;5136747;28;20042;-89
2023/01/18 01:41:18;;;;;;;27.10;17.90;;;;;;;-5.00;100.00;99163.34;5154313;28;20034;-89
2023/01/18 01:43:54;;;;;;;27.05;17.80;;;;;;;-5.83;100.00;99038.06;5137080;28;20039;-89
2023/01/18 01:46:53;;;;;;;27.70;18.23;;;;;;;-6.29;100.00;98970.56;5155617;28;20042;-88
2023/01/18 01:49:30;;;;;;;29.02;18.02;;;;;;;-5.46;100.00;99107.53;5154110;27;20027;-88
2023/01/18 01:52:22;;;;;;;25.50;17.00;;;;;;;-6.37;100.00;98970.78;5145945;28;20095;-87
2023/01/18 01:55:01;;;;;;;23.60;16.17;;;;;;;-5.43;100.00;99120.03;5152876;27;20027;-88
2023/01/18 01:57:46;;;;;;;29.80;17.65;;;;;;;-6.09;100.00;99016.13;5153093;27;20058;-88
2023/01/18 02:00:25;;;;;;;26.45;18.23;;;;;;;-5.67;100.00;99087.09;5154269;27;20019;-87
2023/01/18 02:03:00;;;;;;;27.17;17.00;;;;;;;-5.84;100.00;99054.00;5156025;27;20083;-88
2023/01/18 02:05:28;;;;;;;28.38;16.67;;;;;;;-5.34;100.00;99147.47;5136607;27;20394;-89
2023/01/18 02:07:57;;;;;;;28.83;16.92;;;;;;;-5.83;100.00;99064.00;5155677;27;20027;-87
2023/01/18 02:10:38;;;;;;;27.30;17.13;;;;;;;-6.39;100.00;98983.38;5156158;27;20026;-88
2023/01/18 02:13:09;;;;;;;25.45;17.73;;;;;;;-5.88;100.00;99075.88;5157362;27;20038;-88
2023/01/18 02:16:11;;;;;;;27.17;16.17;;;;;;;-5.03;100.00;99203.69;5157886;27;20082;-87
2023/01/18 02:22:34;;;;;;;26.05;16.73;;;;;;;-5.06;100.00;99203.75;5076911;28;20040;-86
2023/01/18 02:25:21;;;;;;;26.55;17.40;;;;;;;-5.25;100.00;99178.25;5066126;28;20093;-83
2023/01/18 02:28:06;;;;;;;24.13;17.23;;;;;;;-5.08;100.00;99217.25;5057523;28;20090;-83
2023/01/18 02:30:39;;;;;;;25.88;17.58;;;;;;;-5.08;100.00;99207.19;5056911;28;20452;-83
2023/01/18 02:33:12;;;;;;;24.67;16.98;;;;;;;-5.09;100.00;99213.09;5056020;28;20045;-84
2023/01/18 02:36:06;;;;;;;25.27;17.30;;;;;;;-5.10;100.00;99209.75;5055621;28;20081;-83
2023/01/18 02:38:43;;;;;;;26.92;16.58;;;;;;;-5.10;100.00;99219.00;5016036;28;20451;-84
2023/01/18 02:46:29;;;;;;;27.92;17.63;;;;;;;-5.13;100.00;99214.03;5016564;28;20065;-84
2023/01/18 02:47:02;;;;;;;27.15;17.05;;;;;;;-5.59;100.00;99154.81;5016434;28;20115;-83
2023/01/18 02:49:31;;;;;;;27.52;17.50;;;;;;;-5.23;100.00;99213.41;5016157;28;20041;-83
2023/01/18 02:52:03;;;;;;;26.27;16.48;;;;;;;-5.28;100.00;99210.22;5000002;28;20037;-84
2023/01/18 02:54:34;;;;;;;27.30;16.00;;;;;;;-5.19;100.00;99227.59;5015660;28;20489;-83
2023/01/18 02:57:04;;;;;;;25.00;16.67;;;;;;;-5.25;100.00;99221.00;5016190;28;20040;-85
2023/01/18 02:59:38;;;;;;;23.05;16.30;;;;;;;-5.23;100.00;99223.47;5036309;28;20060;-83
2023/01/18 03:02:16;;;;;;;26.55;16.75;;;;;;;-5.25;100.00;99221.00;5054068;28;20052;-83
2023/01/18 03:04:52;;;;;;;23.10;16.50;;;;;;;-5.60;100.00;99169.06;5054041;28;20029;-84
2023/01/18 03:07:47;;;;;;;31.33;18.88;;;;;;;-5.27;100.00;99225.25;5053571;28;20027;-85
2023/01/18 03:10:14;;;;;;;25.40;16.13;;;;;;;-5.51;100.00;99183.91;5054851;28;20130;-87
2023/01/18 03:13:08;;;;;;;24.98;15.43;;;;;;;-5.45;100.00;99197.22;5055068;28;20032;-84
2023/01/18 03:15:43;;;;;;;24.88;17.15;;;;;;;-5.34;100.00;99223.75;5101513;27;20038;-84
2023/01/18 03:18:37;;;;;;;24.65;17.17;;;;;;;-5.96;100.00;99122.19;5135845;27;20035;-84
2023/01/18 03:21:07;;;;;;;24.08;15.60;;;;;;;-6.31;100.00;99085.31;5140366;27;20063;-90
2023/01/18 03:23:48;;;;;;;24.00;16.65;;;;;;;-6.43;100.00;99071.34;5113355;27;20397;-89
2023/01/18 03:26:31;;;;;;;26.85;15.80;;;;;;;-6.61;100.00;99034.91;5136893;27;20030;-90
2023/01/18 03:35:02;;;;;;;21.17;15.07;;;;;;;-6.93;100.00;98993.78;5136370;27;20062;-89
2023/01/18 03:37:47;;;;;;;23.52;15.30;;;;;;;-6.08;100.00;99131.69;5092877;28;20483;-89
2023/01/18 03:40:17;;;;;;;23.63;16.10;;;;;;;-6.32;100.00;99102.06;5092553;28;20032;-89
2023/01/18 03:43:15;;;;;;;24.27;16.67;;;;;;;-5.51;100.00;99239.22;5092228;28;20067;-89
2023/01/18 03:45:48;;;;;;;24.35;15.98;;;;;;;-6.84;100.00;99029.59;5092272;28;20025;-88
2023/01/18 03:48:36;;;;;;;24.35;14.95;;;;;;;-6.13;100.00;99153.53;5059489;28;20031;-88
2023/01/18 03:51:46;;;;;;;22.48;14.05;;;;;;;-5.53;100.00;99247.69;5092518;28;20387;-90
2023/01/18 03:58:10;;;;;;;22.92;14.90;;;;;;;-5.55;100.00;99254.44;5153958;22;20528;-88
2023/01/18 04:00:41;;;;;;;22.67;14.32;;;;;;;-6.11;100.00;99173.59;5096490;28;20031;-88
2023/01/18 04:03:07;;;;;;;23.73;14.52;;;;;;;-6.14;100.00;99166.97;5114638;28;20110;-88
2023/01/18 04:05:34;;;;;;;26.45;15.80;;;;;;;-6.54;100.00;99106.75;5114422;28;20099;-88
2023/01/18 04:07:59;;;;;;;24.85;15.43;;;;;;;-5.87;100.00;99217.47;5114317;28;20023;-88
2023/01/18 04:10:25;;;;;;;23.05;14.93;;;;;;;-5.58;100.00;99269.59;5114422;28;20069;-88
2023/01/18 04:12:56;;;;;;;23.73;15.40;;;;;;;-6.55;100.00;99125.16;5113952;28;20023;-87
2023/01/18 04:15:34;;;;;;;23.33;15.80;;;;;;;-6.93;100.00;99048.16;5114071;28;20035;-88
2023/01/18 04:17:59;;;;;;;26.27;14.98;;;;;;;-7.01;100.00;99039.97;5113708;28;20027;-89
2023/01/18 04:20:31;;;;;;;24.88;16.08;;;;;;;-6.44;100.00;99147.53;5114452;28;20035;-89
2023/01/18 04:23:14;;;;;;;;;;;;;;;-5.60;100.00;99286.44;5114358;28;20031;-89
2023/01/18 04:25:57;;;;;;;25.27;15.50;;;;;;;-7.00;100.00;99064.19;5113806;28;19935;-86
2023/01/18 04:31:30;;;;;;;24.92;14.32;;;;;;;-5.63;100.00;99299.88;5114316;28;20042;-89
2023/01/18 04:33:55;;;;;;;21.25;13.55;;;;;;;-6.12;100.00;99205.44;5113112;28;20485;-88
2023/01/18 04:36:27;;;;;;;22.58;15.13;;;;;;;-7.17;100.00;99041.16;5114406;28;20023;-88
2023/01/18 04:39:04;;;;;;;22.25;15.70;;;;;;;-6.82;100.00;99096.44;5113505;28;20059;-88
2023/01/18 04:41:30;;;;;;;27.00;15.57;;;;;;;-5.69;100.00;99276.56;5113540;28;20134;-88
2023/01/18 04:44:17;;;;;;;24.73;15.73;;;;;;;-5.64;100.00;99289.84;5113516;28;20104;-87
2023/01/18 04:46:54;;;;;;;24.10;15.23;;;;;;;-6.49;100.00;99160.22;5113438;28;20102;-86
2023/01/18 04:49:20;;;;;;;26.52;15.55;;;;;;;-6.22;100.00;99203.16;5113081;28;20501;-88
2023/01/18 04:51:53;;;;;;;21.65;15.05;;;;;;;-6.22;100.00;99211.53;5113424;28;20027;-89
2023/01/18 04:54:21;;;;;;;23.55;15.07;;;;;;;-7.13;100.00;99076.16;5113499;28;20355;-89
2023/01/18 04:56:56;;;;;;;25.10;15.45;;;;;;;-7.09;100.00;99070.22;5094982;28;20064;-89
2023/01/18 04:59:30;;;;;;;22.70;14.65;;;;;;;-5.90;100.00;99270.31;5090612;28;20491;-88
2023/01/18 05:02:01;;;;;;;23.88;14.27;;;;;;;-6.84;100.00;99123.25;5092924;28;20092;-89
2023/01/18 05:04:27;;;;;;;23.92;15.45;;;;;;;-6.72;100.00;99149.78;5092809;28;20118;-89
2023/01/18 05:06:52;;;;;;;25.13;16.80;;;;;;;-6.61;100.00;99157.09;5092788;28;20104;-88
2023/01/18 05:09:36;;;;;;;25.67;16.60;;;;;;;-7.03;100.00;99094.38;5092996;28;20489;-88
2023/01/18 05:12:19;;;;;;;27.02;17.48;;;;;;;-6.43;100.00;99184.34;5091645;28;20026;-88
2023/01/18 05:14:44;;;;;;;25.98;17.13;;;;;;;-7.04;100.00;99086.00;5091376;28;20027;-88
2023/01/18 05:17:09;;;;;;;32.45;18.65;;;;;;;-6.83;100.00;99102.31;5092780;28;20043;-89
2023/01/18 05:19:54;;;;;;;26.08;18.63;;;;;;;-5.95;100.00;99225.19;5092706;28;20042;-89
2023/01/18 05:22:21;;;;;;;26.48;17.98;;;;;;;-6.74;100.00;99093.78;5092586;28;20391;-89
2023/01/18 05:24:46;;;;;;;30.60;18.85;;;;;;;-6.68;100.00;99104.53;5091299;28;20085;-89
2023/01/18 05:27:12;;;;;;;30.63;20.65;;;;;;;-6.60;100.00;99106.03;5093003;28;20040;-88
2023/01/18 05:29:55;;;;;;;30.45;19.35;;;;;;;-6.62;100.00;99111.09;5092618;28;20015;-90
2023/01/18 05:32:34;;;;;;;28.42;18.90;;;;;;;-6.63;100.00;99098.56;5095696;28;20024;-89
2023/01/18 05:35:06;;;;;;;33.63;21.48;;;;;;;-6.09;100.00;99177.75;5096899;28;20081;-88
2023/01/18 05:37:44;;;;;;;29.55;19.38;;;;;;;-6.46;100.00;99119.97;5097158;28;20016;-89
2023/01/18 05:40:21;;;;;;;29.75;19.70;;;;;;;-6.50;100.00;99115.84;5095445;28;20107;-89
2023/01/18 05:42:49;;;;;;;30.23;18.38;;;;;;;-6.50;100.00;99123.38;5096708;28;20020;-89
2023/01/18 05:45:29;;;;;;;31.45;18.73;;;;;;;-6.43;100.00;99134.13;5096559;28;20502;-88
2023/01/18 05:47:54;;;;;;;30.20;19.25;;;;;;;-5.82;100.00;99241.63;5096555;28;20379;-88
2023/01/18 05:50:32;;;;;;;28.70;20.25;;;;;;;-6.51;100.00;99134.28;5096506;28;20032;-89
2023/01/18 05:53:20;;;;;;;33.30;21.08;;;;;;;-6.57;100.00;99123.56;5095175;28;20020;-89
2023/01/18 05:56:00;;;;;;;29.48;21.05;;;;;;;-5.94;100.00;99233.56;5096238;28;20024;-89
2023/01/18 05:58:40;;;;;;;32.78;19.75;;;;;;;-6.02;100.00;99230.38;5094397;28;20051;-89
2023/01/18 06:01:46;;;;;;;33.20;20.55;;;;;;;-5.16;100.00;99363.41;5096082;28;20074;-89
2023/01/18 06:04:14;;;;;;;28.20;20.23;;;;;;;-6.31;100.00;99170.69;5096145;28;20020;-86
2023/01/18 06:06:43;;;;;;;33.90;20.25;;;;;;;-5.08;100.00;99363.22;5095002;28;20078;-84
2023/01/18 06:09:15;;;;;;;31.90;20.27;;;;;;;-6.49;100.00;99134.25;5096669;28;20024;-90
2023/01/18 06:11:53;;;;;;;31.83;20.25;;;;;;;-5.60;100.00;99279.72;5096361;28;20093;-89
2023/01/18 06:14:18;;;;;;;28.10;19.70;;;;;;;-5.64;100.00;99264.72;5096133;28;20024;-90
2023/01/18 06:16:43;;;;;;;30.10;21.08;;;;;;;-5.02;100.00;99373.13;5095160;28;20385;-89
2023/01/18 06:19:09;;;;;;;33.08;22.20;;;;;;;-5.38;100.00;99309.41;5094787;28;20505;-88
2023/01/18 06:21:34;;;;;;;30.63;21.23;;;;;;;-4.98;100.00;99378.09;5096141;28;20031;-88
2023/01/18 06:23:59;;;;;;;31.08;22.15;;;;;;;-5.16;100.00;99350.00;5095831;28;20138;-88
2023/01/18 06:26:25;;;;;;;33.78;21.50;;;;;;;-5.14;100.00;99358.31;5096147;28;20059;-88
2023/01/18 06:28:50;;;;;;;33.30;21.85;;;;;;;-5.19;100.00;99348.38;5095370;28;20032;-89
2023/01/18 06:31:15;;;;;;;33.10;22.20;;;;;;;-5.17;100.00;99366.78;5095560;28;20024;-89
2023/01/18 06:33:41;;;;;;;33.80;22.90;;;;;;;-5.06;100.00;99392.53;5095773;28;20081;-86
2023/01/18 06:36:06;;;;;;;38.83;22.90;;;;;;;-5.16;100.00;99378.50;5094361;28;20028;-89
2023/01/18 06:38:32;;;;;;;33.67;22.42;;;;;;;-5.19;100.00;99371.03;5095774;28;20094;-88
2023/01/18 06:41:03;;;;;;;31.85;21.38;;;;;;;-5.02;100.00;99399.13;5095056;28;20383;-89
2023/01/18 06:43:30;;;;;;;33.83;21.95;;;;;;;-5.01;100.00;99403.34;5095324;28;20061;-87
2023/01/18 06:45:56;;;;;;;34.60;22.48;;;;;;;-5.01;100.00;99402.50;5095325;28;20411;-85
2023/01/18 06:48:23;;;;;;;32.85;22.20;;;;;;;-5.30;100.00;99372.94;5094038;28;20035;-88
2023/01/18 06:50:51;;;;;;;32.38;20.88;;;;;;;-5.05;100.00;99414.31;5095095;28;20021;-88
2023/01/18 06:53:19;;;;;;;33.15;21.08;;;;;;;-5.33;100.00;99386.41;5094255;28;20051;-87
2023/01/18 06:55:55;;;;;;;34.60;22.38;;;;;;;-5.07;100.00;99431.16;5094439;28;20089;-86
2023/01/18 06:58:22;;;;;;;34.13;21.92;;;;;;;-5.23;100.00;99409.69;5102658;28;20075;-87
2023/01/18 07:00:48;;;;;;;32.85;21.88;;;;;;;-5.07;100.00;99432.84;5097116;28;20027;-85
2023/01/18 07:03:13;;;;;;;33.97;22.10;;;;;;;-5.24;100.00;99410.53;5115497;28;20027;-87
2023/01/18 07:05:38;;;;;;;35.00;22.33;;;;;;;-5.43;100.00;99389.97;5115737;28;20031;-85
2023/01/18 07:08:04;;;;;;;31.33;23.15;;;;;;;-5.37;100.00;99404.13;5115513;28;20032;-85
2023/01/18 07:10:32;;;;;;;31.55;22.95;;;;;;;-5.03;100.00;99457.06;5115205;28;20028;-87
2023/01/18 07:12:57;;;;;;;32.25;22.67;;;;;;;-5.69;100.00;99360.38;5115374;28;20141;-83
2023/01/18 07:15:23;;;;;;;34.75;22.92;;;;;;;-5.21;100.00;99439.00;5097218;28;20052;-85
2023/01/18 07:17:51;;;;;;;34.17;23.25;;;;;;;-5.28;100.00;99436.63;5096925;28;20031;-88
2023/01/18 07:20:18;;;;;;;34.92;24.02;;;;;;;-5.14;100.00;99459.81;5097205;28;20454;-85
2023/01/18 07:22:44;;;;;;;35.17;24.13;;;;;;;-5.39;100.00;99409.19;5115502;28;20106;-85
2023/01/18 07:25:12;;;;;;;37.47;24.02;;;;;;;-5.10;100.00;99468.97;5115296;28;20107;-86
2023/01/18 07:27:49;;;;;;;35.42;24.02;;;;;;;-5.06;100.00;99467.22;5115064;28;20102;-85
2023/01/18 07:30:16;;;;;;;37.75;25.55;;;;;;;-5.01;100.00;99462.91;5115092;28;20016;-86
2023/01/18 07:32:49;;;;;;;35.50;24.83;;;;;;;-5.70;100.00;99356.19;5114870;28;20035;-84
2023/01/18 07:35:40;;;;;;;38.28;24.10;;;;;;;-5.94;100.00;99317.31;5114954;28;20024;-85
2023/01/18 07:38:08;;;;;;;31.88;24.33;;;;;;;-6.44;100.00;99237.94;5114148;28;20132;-84
2023/01/18 07:41:18;;;;;;;38.85;26.63;;;;;;;-4.98;100.00;99478.78;5096491;28;20085;-84
2023/01/18 07:43:50;;;;;;;39.10;26.48;;;;;;;-6.29;100.00;99252.72;5114593;28;20058;-85
2023/01/18 07:46:31;;;;;;;36.50;27.10;;;;;;;-6.31;100.00;99241.03;5114738;28;20030;-84
2023/01/18 07:48:57;;;;;;;37.90;25.92;;;;;;;-6.21;100.00;99260.91;5114434;28;20095;-84
2023/01/18 07:51:23;;;;;;;40.97;27.92;;;;;;;-5.62;100.00;99364.38;5095655;28;20111;-83
2023/01/18 07:54:17;;;;;;;41.30;27.65;;;;;;;-4.83;100.00;99479.28;5113923;28;20070;-82
2023/01/18 07:56:43;;;;;;;38.83;26.20;;;;;;;-6.05;100.00;99281.53;5115044;28;20378;-86
2023/01/18 07:59:48;;;;;;;42.50;28.10;;;;;;;-6.14;100.00;99266.63;5112825;28;20050;-84
2023/01/18 08:02:19;;;;;;;36.92;25.98;;;;;;;-5.15;100.00;99422.94;5095899;28;20541;-84
2023/01/18 08:04:54;;;;;;;40.90;26.45;;;;;;;-6.10;100.00;99271.56;5114344;28;20022;-85
2023/01/18 08:07:25;;;;;;;39.20;26.48;;;;;;;-5.21;100.00;99408.81;5095410;28;20470;-84
2023/01/18 08:09:54;;;;;;;;;;;;;;;-4.66;100.00;99494.84;5081157;28;20412;-83
2023/01/18 08:12:31;;;;;;;35.05;24.60;;;;;;;-5.80;100.00;99314.47;5094378;28;19916;-83
2023/01/18 08:15:09;;;;;;;40.92;26.92;;;;;;;-5.74;100.00;99309.34;5120811;22;20047;-83
2023/01/18 08:17:50;;;;;;;37.15;25.33;;;;;;;-5.07;100.00;99420.25;5114397;28;20415;-82
2023/01/18 08:20:15;;;;;;;39.22;27.25;;;;;;;-4.50;100.00;99506.25;5113961;28;20028;-83
2023/01/18 08:22:44;;;;;;;39.83;26.23;;;;;;;-4.57;100.00;99489.63;5114345;28;20107;-83
2023/01/18 08:25:09;;;;;;;37.20;24.63;;;;;;;-4.38;100.00;99507.66;5112433;28;20035;-82
2023/01/18 08:27:35;;;;;;;33.88;25.13;;;;;;;-4.48;100.00;99489.41;5116269;27;20454;-87
2023/01/18 08:30:00;;;;;;;34.83;25.77;;;;;;;-4.53;100.00;99482.81;5134565;27;20031;-87
2023/01/18 08:32:25;;;;;;;34.08;24.55;;;;;;;-4.33;100.00;99515.91;5134391;27;20031;-85
2023/01/18 08:34:51;;;;;;;38.92;25.45;;;;;;;-4.25;100.00;99515.75;5134220;27;20046;-85
2023/01/18 08:37:16;;;;;;;36.53;25.83;;;;;;;-4.22;100.00;99521.56;5135348;27;20030;-86
2023/01/18 08:39:41;;;;;;;39.53;25.95;;;;;;;-4.21;100.00;99524.91;5134281;27;20023;-85
2023/01/18 08:42:10;;;;;;;34.30;24.42;;;;;;;-4.38;100.00;99508.47;5134399;27;20034;-86
2023/01/18 08:44:59;;;;;;;37.88;26.00;;;;;;;-4.81;100.00;99439.81;5120185;27;20050;-87
2023/01/18 08:47:27;;;;;;;34.28;24.67;;;;;;;-5.56;100.00;99316.47;5115796;27;20023;-85
2023/01/18 08:49:58;;;;;;;35.40;24.98;;;;;;;-4.73;100.00;99453.88;5151640;22;20059;-87
2023/01/18 08:52:24;;;;;;;37.53;25.08;;;;;;;-4.11;100.00;99552.38;5072972;28;20094;-87
2023/01/18 08:54:49;;;;;;;39.08;26.92;;;;;;;-4.07;100.00;99551.44;5073026;28;20020;-84
2023/01/18 08:57:17;;;;;;;37.97;25.42;;;;;;;-4.18;100.00;99533.22;5073126;28;20028;-86
2023/01/18 08:59:42;;;;;;;35.50;25.85;;;;;;;-3.96;100.00;99561.25;5073177;28;20028;-83
2023/01/18 09:02:09;;;;;;;39.08;25.85;;;;;;;-4.27;100.00;99500.66;5072610;28;20417;-85
2023/01/18 09:04:35;;;;;;;39.80;26.30;;;;;;;-4.35;100.00;99483.19;5072483;28;20503;-84
2023/01/18 09:07:00;;;;;;;39.22;26.17;;;;;;;-3.81;100.00;99568.47;5072411;28;20029;-85
2023/01/18 09:09:26;;;;;;;34.28;25.08;;;;;;;-3.76;100.00;99574.19;5072804;28;20029;-85
2023/01/18 09:11:51;;;;;;;36.13;26.20;;;;;;;-3.85;100.00;99539.13;5072463;28;20028;-85
2023/01/18 09:14:17;;;;;;;39.88;27.00;;;;;;;-3.81;100.00;99542.41;5072655;28;20021;-85
2023/01/18 09:16:42;;;;;;;37.33;26.55;;;;;;;-3.61;100.00;99573.00;5070606;28;20403;-86
2023/01/18 09:19:10;;;;;;;35.63;25.27;;;;;;;-3.79;100.00;99546.53;5072166;28;20438;-85
2023/01/18 09:21:35;;;;;;;39.92;26.88;;;;;;;-3.53;100.00;99581.22;5072650;28;20464;-89
2023/01/18 09:24:00;;;;;;;38.13;26.83;;;;;;;-3.51;100.00;99584.53;5072827;28;20028;-86
2023/01/18 09:26:27;;;;;;;36.33;25.55;;;;;;;-3.67;100.00;99557.19;5071515;28;20032;-86
2023/01/18 09:28:53;;;;;;;39.70;25.67;;;;;;;-3.70;100.00;99547.19;5072653;28;20039;-87
2023/01/18 09:31:21;;;;;;;36.90;25.35;;;;;;;-3.44;100.00;99590.25;5072208;28;20024;-88
2023/01/18 09:33:49;;;;;;;36.63;26.17;;;;;;;-3.58;100.00;99556.97;5071070;28;20029;-88
2023/01/18 09:36:16;;;;;;;36.97;25.92;;;;;;;-3.63;100.00;99544.47;5072400;28;20490;-85
2023/01/18 09:38:42;;;;;;;35.50;25.58;;;;;;;-3.52;100.00;99559.31;5072216;28;20481;-87
2023/01/18 09:41:19;;;;;;;41.83;25.45;;;;;;;-3.35;100.00;99579.06;5072623;28;20365;-89
2023/01/18 09:43:55;;;;;;;37.92;26.40;;;;;;;-3.08;100.00;99603.56;5071136;28;20074;-88
2023/01/18 09:46:22;;;;;;;37.55;25.92;;;;;;;-3.38;100.00;99548.88;5072340;28;20029;-89
2023/01/18 09:48:53;;;;;;;35.95;25.55;;;;;;;-3.07;100.00;99589.25;5076295;28;20114;-89
2023/01/18 09:51:22;;;;;;;37.80;26.60;;;;;;;-2.92;100.00;99619.16;5075184;28;20040;-89
2023/01/18 09:54:10;;;;;;;38.17;25.60;;;;;;;-2.90;100.00;99623.28;5073202;28;20101;-85
2023/01/18 09:56:45;;;;;;;38.42;25.75;;;;;;;-2.83;100.00;99618.06;5073151;28;20418;-86
2023/01/18 09:59:18;;;;;;;36.33;25.67;;;;;;;-2.79;100.00;99617.94;5071870;28;20368;-84
2023/01/18 10:01:44;;;;;;;34.42;25.52;;;;;;;-2.85;100.00;99600.44;5072015;28;20117;-84
2023/01/18 10:04:22;;;;;;;35.80;25.20;;;;;;;-2.75;100.00;99617.00;5072110;28;20040;-85
2023/01/18 10:07:15;;;;;;;34.75;24.33;;;;;;;-2.55;100.00;99638.34;5072998;28;20025;-84
2023/01/18 10:09:48;;;;;;;36.75;25.00;;;;;;;-2.60;100.00;99601.38;5072038;28;20398;-84
2023/01/18 10:12:34;;;;;;;34.08;24.58;;;;;;;-2.60;100.00;99586.22;5073020;28;20032;-83
2023/01/18 10:15:06;;;;;;;30.77;23.98;;;;;;;-2.58;100.00;99581.13;5074045;28;20020;-86
2023/01/18 10:17:45;;;;;;;33.90;24.25;;;;;;;-2.29;100.00;99620.69;5079556;28;20029;-84
2023/01/18 10:20:27;;;;;;;29.52;23.08;;;;;;;-2.14;100.00;99621.97;5078468;28;20033;-85
2023/01/18 10:22:52;;;;;;;30.30;23.40;;;;;;;-2.07;100.00;99623.41;5076152;28;20052;-82
2023/01/18 10:25:27;;;;;;;30.13;23.10;;;;;;;-2.10;100.00;99616.75;5079429;28;20020;-83
2023/01/18 10:28:17;;;;;;;28.98;23.17;;;;;;;-2.18;100.00;99600.97;5078864;28;20028;-83
2023/01/18 10:31:20;;;;;;;31.65;23.48;;;;;;;-1.94;100.00;99632.28;5078546;28;20111;-82
2023/01/18 10:33:49;;;;;;;31.27;23.42;;;;;;;-1.86;100.00;99637.94;5075922;28;20056;-87
2023/01/18 10:36:21;;;;;;;33.80;23.13;;;;;;;-2.36;100.00;99549.28;5079433;28;20034;-84
2023/01/18 10:38:50;;;;;;;37.95;23.77;;;;;;;-1.73;100.00;99635.84;5079635;28;20028;-87
2023/01/18 10:41:26;;;;;;;30.90;22.85;;;;;;;-1.70;100.00;99633.22;5083518;28;20025;-86
2023/01/18 10:43:53;;;;;;;31.13;22.77;;;;;;;-2.04;100.00;99565.16;5078217;28;20036;-84
2023/01/18 10:46:19;;;;;;;31.33;22.50;;;;;;;-1.58;100.00;99637.88;5081673;28;20016;-87
2023/01/18 10:48:56;;;;;;;31.83;22.40;;;;;;;-1.69;100.00;99606.19;5076266;28;20036;-86
2023/01/18 10:51:37;;;;;;;29.75;22.70;;;;;;;-1.54;100.00;99631.84;5076330;28;20041;-86
2023/01/18 10:54:35;;;;;;;26.70;20.13;;;;;;;-1.36;100.00;99643.06;5079032;28;20082;-88
2023/01/18 10:57:04;;;;;;;29.90;21.77;;;;;;;-1.60;100.00;99593.25;5075693;28;20028;-83
2023/01/18 10:59:35;;;;;;;30.52;20.98;;;;;;;-1.30;100.00;99629.38;5075049;28;20025;-88
2023/01/18 11:02:01;;;;;;;27.00;20.90;;;;;;;-1.15;100.00;99639.00;5075283;28;20066;-83
2023/01/18 11:04:30;;;;;;;29.13;21.42;;;;;;;-1.10;100.00;99639.66;5075437;28;20024;-87
2023/01/18 11:07:03;;;;;;;27.33;21.55;;;;;;;-1.20;100.00;99618.03;5075056;28;20111;-86
2023/01/18 11:09:48;;;;;;;27.48;20.73;;;;;;;-0.98;100.00;99651.91;5075051;28;20016;-87
2023/01/18 11:12:37;;;;;;;28.33;20.63;;;;;;;-1.02;100.00;99647.81;5074987;28;20082;-83
2023/01/18 11:15:11;;;;;;;25.73;20.35;;;;;;;-0.91;100.00;99660.94;5074832;28;20107;-87
2023/01/18 11:17:37;;;;;;;30.40;20.88;;;;;;;-1.15;100.00;99608.59;5074669;28;20411;-88
2023/01/18 11:20:18;;;;;;;27.38;21.00;;;;;;;-0.91;100.00;99637.31;5075940;28;20032;-85
2023/01/18 11:23:09;;;;;;;27.63;20.95;;;;;;;-0.76;100.00;99641.84;5075590;28;20046;-88
2023/01/18 11:25:40;;;;;;;27.00;19.80;;;;;;;-0.78;100.00;99632.66;5078677;28;20028;-87
2023/01/18 11:28:33;;;;;;;33.33;19.63;;;;;;;-0.66;100.00;99637.28;5073509;28;20383;-84
2023/01/18 11:31:12;;;;;;;23.55;18.10;;;;;;;-0.77;100.00;99616.56;5074579;28;20036;-83
2023/01/18 11:33:59;;;;;;;28.98;19.35;;;;;;;-0.82;100.00;99596.44;5074567;28;20560;-83
2023/01/18 11:36:43;;;;;;;26.83;18.38;;;;;;;-0.54;100.00;99641.06;5074058;28;20104;-85
2023/01/18 11:39:34;;;;;;;28.67;19.42;;;;;;;-0.50;100.00;99643.44;5073944;28;20036;-87
2023/01/18 11:42:16;;;;;;;25.10;17.95;;;;;;;-0.70;100.00;99597.69;5074507;28;20397;-85
2023/01/18 11:44:48;;;;;;;26.08;17.95;;;;;;;-0.55;100.00;99621.66;5072985;28;20023;-84
2023/01/18 11:47:21;;;;;;;23.27;18.42;;;;;;;-0.37;100.00;99647.19;5073024;28;20024;-84
2023/01/18 11:50:12;;;;;;;20.45;16.95;;;;;;;-0.40;100.00;99626.97;5074073;28;20044;-82
2023/01/18 11:53:06;;;;;;;20.98;15.40;;;;;;;-0.41;100.00;99627.88;5072445;28;20434;-81
2023/01/18 11:56:07;;;;;;;20.83;15.40;;;;;;;-0.22;100.00;99653.38;5074043;28;20109;-83
2023/01/18 11:58:34;;;;;;;20.35;16.25;;;;;;;-0.15;100.00;99659.88;5031845;28;20041;-83
2023/01/18 12:01:21;;;;;;;20.25;15.25;;;;;;;-0.04;100.00;99651.84;5032002;28;20029;-84
2023/01/18 12:04:05;;;;;;;22.20;14.82;;;;;;;0.02;100.00;99651.63;5031907;28;20044;-84
2023/01/18 12:06:45;;;;;;;21.05;14.40;;;;;;;0.05;100.00;99654.03;5031598;28;20116;-84
2023/01/18 12:09:13;;;;;;;19.98;14.95;;;;;;;0.20;100.00;99660.25;5031814;28;20041;-85
2023/01/18 12:12:12;;;;;;;19.42;13.73;;;;;;;0.27;100.00;99662.47;5031533;28;20036;-80
2023/01/18 12:15:03;;;;;;;18.00;12.93;;;;;;;0.36;100.00;99665.53;4953077;29;20038;-87